sensor_id;sensor_type;location;lat;lon;timestamp;P1;durP1;ratioP1;P2;durP2;ratioP2
12271;SDS011;6198;51.446;6.698;2023-05-07T00:00:26;9.60;;;6.80;;
12271;SDS011;6198;51.446;6.698;2023-05-07T00:02:52;8.80;;;7.03;;
12271;SDS011;6198;51.446;6.698;2023-05-07T00:05:18;10.00;;;6.67;;
12271;SDS011;6198;51.446;6.698;2023-05-07T00:07:44;10.33;;;7.20;;
12271;SDS011;6198;51.446;6.698;2023-05-07T00:10:10;8.80;;;7.17;;
12271;SDS011;6198;51.446;6.698;2023-05-07T00:12:37;9.83;;;7.17;;
12271;SDS011;6198;51.446;6.698;2023-05-07T00:15:03;7.73;;;6.93;;
12271;SDS011;6198;51.446;6.698;2023-05-07T00:17:29;9.13;;;7.70;;
12271;SDS011;6198;51.446;6.698;2023-05-07T00:19:55;10.27;;;7.77;;
12271;SDS011;6198;51.446;6.698;2023-05-07T00:22:21;8.30;;;7.43;;
12271;SDS011;6198;51.446;6.698;2023-05-07T00:24:47;9.00;;;7.67;;
12271;SDS011;6198;51.446;6.698;2023-05-07T00:27:13;11.70;;;8.00;;
12271;SDS011;6198;51.446;6.698;2023-05-07T00:29:39;9.43;;;8.30;;
12271;SDS011;6198;51.446;6.698;2023-05-07T00:32:05;10.27;;;8.57;;
12271;SDS011;6198;51.446;6.698;2023-05-07T00:34:31;9.60;;;8.20;;
12271;SDS011;6198;51.446;6.698;2023-05-07T00:36:57;9.53;;;8.47;;
12271;SDS011;6198;51.446;6.698;2023-05-07T00:39:23;11.87;;;8.87;;
12271;SDS011;6198;51.446;6.698;2023-05-07T00:41:49;11.03;;;8.90;;
12271;SDS011;6198;51.446;6.698;2023-05-07T00:44:16;10.43;;;8.83;;
12271;SDS011;6198;51.446;6.698;2023-05-07T00:46:43;9.97;;;9.07;;
12271;SDS011;6198;51.446;6.698;2023-05-07T00:49:09;13.10;;;9.27;;
12271;SDS011;6198;51.446;6.698;2023-05-07T00:51:35;11.77;;;9.10;;
12271;SDS011;6198;51.446;6.698;2023-05-07T00:54:02;10.47;;;9.47;;
12271;SDS011;6198;51.446;6.698;2023-05-07T00:56:28;11.97;;;9.83;;
12271;SDS011;6198;51.446;6.698;2023-05-07T00:58:54;11.17;;;10.00;;
12271;SDS011;6198;51.446;6.698;2023-05-07T01:01:20;11.53;;;9.70;;
12271;SDS011;6198;51.446;6.698;2023-05-07T01:03:46;12.60;;;10.30;;
12271;SDS011;6198;51.446;6.698;2023-05-07T01:06:12;11.53;;;10.00;;
12271;SDS011;6198;51.446;6.698;2023-05-07T01:08:41;14.90;;;10.10;;
12271;SDS011;6198;51.446;6.698;2023-05-07T01:11:07;15.17;;;10.57;;
12271;SDS011;6198;51.446;6.698;2023-05-07T01:13:34;14.50;;;10.50;;
12271;SDS011;6198;51.446;6.698;2023-05-07T01:16:00;10.67;;;9.60;;
12271;SDS011;6198;51.446;6.698;2023-05-07T01:18:26;14.67;;;9.73;;
12271;SDS011;6198;51.446;6.698;2023-05-07T01:20:54;11.47;;;10.27;;
12271;SDS011;6198;51.446;6.698;2023-05-07T01:23:21;12.87;;;11.43;;
12271;SDS011;6198;51.446;6.698;2023-05-07T01:25:54;15.03;;;11.00;;
12271;SDS011;6198;51.446;6.698;2023-05-07T01:28:20;13.53;;;12.07;;
12271;SDS011;6198;51.446;6.698;2023-05-07T01:30:48;14.47;;;12.27;;
12271;SDS011;6198;51.446;6.698;2023-05-07T01:33:15;13.77;;;12.37;;
12271;SDS011;6198;51.446;6.698;2023-05-07T01:35:45;15.43;;;12.70;;
12271;SDS011;6198;51.446;6.698;2023-05-07T01:38:11;13.87;;;12.00;;
12271;SDS011;6198;51.446;6.698;2023-05-07T01:40:37;14.53;;;12.97;;
12271;SDS011;6198;51.446;6.698;2023-05-07T01:43:03;14.60;;;12.67;;
12271;SDS011;6198;51.446;6.698;2023-05-07T01:45:30;15.20;;;13.57;;
12271;SDS011;6198;51.446;6.698;2023-05-07T01:47:57;15.23;;;13.83;;
12271;SDS011;6198;51.446;6.698;2023-05-07T01:50:24;17.23;;;14.83;;
12271;SDS011;6198;51.446;6.698;2023-05-07T01:52:51;17.00;;;14.60;;
12271;SDS011;6198;51.446;6.698;2023-05-07T01:55:17;16.70;;;14.53;;
12271;SDS011;6198;51.446;6.698;2023-05-07T01:57:43;16.03;;;14.33;;
12271;SDS011;6198;51.446;6.698;2023-05-07T02:00:09;17.00;;;15.20;;
12271;SDS011;6198;51.446;6.698;2023-05-07T02:02:35;16.90;;;15.23;;
12271;SDS011;6198;51.446;6.698;2023-05-07T02:05:03;16.23;;;14.37;;
12271;SDS011;6198;51.446;6.698;2023-05-07T02:07:29;15.87;;;14.33;;
12271;SDS011;6198;51.446;6.698;2023-05-07T02:09:55;16.57;;;14.47;;
12271;SDS011;6198;51.446;6.698;2023-05-07T02:12:21;16.93;;;15.07;;
12271;SDS011;6198;51.446;6.698;2023-05-07T02:14:47;16.23;;;14.63;;
12271;SDS011;6198;51.446;6.698;2023-05-07T02:17:13;15.97;;;14.47;;
12271;SDS011;6198;51.446;6.698;2023-05-07T02:19:39;20.70;;;15.40;;
12271;SDS011;6198;51.446;6.698;2023-05-07T02:22:05;16.17;;;14.57;;
12271;SDS011;6198;51.446;6.698;2023-05-07T02:24:31;18.00;;;14.80;;
12271;SDS011;6198;51.446;6.698;2023-05-07T02:26:57;16.93;;;15.17;;
12271;SDS011;6198;51.446;6.698;2023-05-07T02:29:23;15.93;;;14.37;;
12271;SDS011;6198;51.446;6.698;2023-05-07T02:31:49;17.33;;;14.70;;
12271;SDS011;6198;51.446;6.698;2023-05-07T02:34:16;15.73;;;14.00;;
12271;SDS011;6198;51.446;6.698;2023-05-07T02:36:42;16.63;;;13.50;;
12271;SDS011;6198;51.446;6.698;2023-05-07T02:39:08;17.87;;;14.47;;
12271;SDS011;6198;51.446;6.698;2023-05-07T02:41:34;16.30;;;14.70;;
12271;SDS011;6198;51.446;6.698;2023-05-07T02:44:00;20.90;;;14.43;;
12271;SDS011;6198;51.446;6.698;2023-05-07T02:46:26;16.50;;;14.80;;
12271;SDS011;6198;51.446;6.698;2023-05-07T02:48:52;15.33;;;13.80;;
12271;SDS011;6198;51.446;6.698;2023-05-07T02:51:19;16.73;;;14.57;;
12271;SDS011;6198;51.446;6.698;2023-05-07T02:53:45;15.57;;;14.03;;
12271;SDS011;6198;51.446;6.698;2023-05-07T02:56:11;15.90;;;14.33;;
12271;SDS011;6198;51.446;6.698;2023-05-07T02:58:37;16.77;;;14.77;;
12271;SDS011;6198;51.446;6.698;2023-05-07T03:01:07;18.73;;;15.33;;
12271;SDS011;6198;51.446;6.698;2023-05-07T03:03:33;19.37;;;16.47;;
12271;SDS011;6198;51.446;6.698;2023-05-07T03:05:59;17.97;;;15.77;;
12271;SDS011;6198;51.446;6.698;2023-05-07T03:08:25;17.30;;;15.53;;
12271;SDS011;6198;51.446;6.698;2023-05-07T03:10:51;18.00;;;16.07;;
12271;SDS011;6198;51.446;6.698;2023-05-07T03:13:18;18.47;;;16.63;;
12271;SDS011;6198;51.446;6.698;2023-05-07T03:15:44;18.00;;;16.20;;
12271;SDS011;6198;51.446;6.698;2023-05-07T03:18:10;18.63;;;16.83;;
12271;SDS011;6198;51.446;6.698;2023-05-07T03:20:36;22.60;;;16.83;;
12271;SDS011;6198;51.446;6.698;2023-05-07T03:23:02;18.23;;;16.43;;
12271;SDS011;6198;51.446;6.698;2023-05-07T03:25:28;19.60;;;17.37;;
12271;SDS011;6198;51.446;6.698;2023-05-07T03:27:57;19.70;;;17.60;;
12271;SDS011;6198;51.446;6.698;2023-05-07T03:30:23;19.50;;;17.37;;
12271;SDS011;6198;51.446;6.698;2023-05-07T03:32:49;21.70;;;17.27;;
12271;SDS011;6198;51.446;6.698;2023-05-07T03:35:15;19.30;;;17.37;;
12271;SDS011;6198;51.446;6.698;2023-05-07T03:37:41;20.20;;;17.97;;
12271;SDS011;6198;51.446;6.698;2023-05-07T03:40:07;19.43;;;17.43;;
12271;SDS011;6198;51.446;6.698;2023-05-07T03:42:35;21.50;;;19.30;;
12271;SDS011;6198;51.446;6.698;2023-05-07T03:45:01;20.47;;;18.37;;
12271;SDS011;6198;51.446;6.698;2023-05-07T03:47:27;21.40;;;19.20;;
12271;SDS011;6198;51.446;6.698;2023-05-07T03:49:53;21.63;;;19.33;;
12271;SDS011;6198;51.446;6.698;2023-05-07T03:52:19;21.20;;;19.00;;
12271;SDS011;6198;51.446;6.698;2023-05-07T03:54:49;21.80;;;19.60;;
12271;SDS011;6198;51.446;6.698;2023-05-07T03:57:15;21.57;;;19.57;;
12271;SDS011;6198;51.446;6.698;2023-05-07T03:59:41;23.10;;;19.73;;
12271;SDS011;6198;51.446;6.698;2023-05-07T04:02:07;21.47;;;19.27;;
12271;SDS011;6198;51.446;6.698;2023-05-07T04:04:33;22.13;;;18.90;;
12271;SDS011;6198;51.446;6.698;2023-05-07T04:06:59;20.60;;;18.43;;
12271;SDS011;6198;51.446;6.698;2023-05-07T04:09:25;21.70;;;18.83;;
12271;SDS011;6198;51.446;6.698;2023-05-07T04:11:51;21.20;;;19.00;;
12271;SDS011;6198;51.446;6.698;2023-05-07T04:14:17;22.60;;;18.30;;
12271;SDS011;6198;51.446;6.698;2023-05-07T04:16:43;22.57;;;18.47;;
12271;SDS011;6198;51.446;6.698;2023-05-07T04:19:09;20.87;;;18.63;;
12271;SDS011;6198;51.446;6.698;2023-05-07T04:21:35;21.73;;;19.30;;
12271;SDS011;6198;51.446;6.698;2023-05-07T04:24:02;22.10;;;19.23;;
12271;SDS011;6198;51.446;6.698;2023-05-07T04:26:28;22.33;;;19.13;;
12271;SDS011;6198;51.446;6.698;2023-05-07T04:28:55;21.57;;;19.47;;
12271;SDS011;6198;51.446;6.698;2023-05-07T04:31:22;25.20;;;20.80;;
12271;SDS011;6198;51.446;6.698;2023-05-07T04:33:48;22.73;;;20.53;;
12271;SDS011;6198;51.446;6.698;2023-05-07T04:36:15;22.23;;;19.97;;
12271;SDS011;6198;51.446;6.698;2023-05-07T04:38:41;23.77;;;21.27;;
12271;SDS011;6198;51.446;6.698;2023-05-07T04:41:08;23.63;;;21.13;;
12271;SDS011;6198;51.446;6.698;2023-05-07T04:43:34;24.80;;;22.07;;
12271;SDS011;6198;51.446;6.698;2023-05-07T04:46:00;24.00;;;21.50;;
12271;SDS011;6198;51.446;6.698;2023-05-07T04:48:26;23.13;;;20.77;;
12271;SDS011;6198;51.446;6.698;2023-05-07T04:50:53;24.30;;;21.87;;
12271;SDS011;6198;51.446;6.698;2023-05-07T04:53:19;24.33;;;21.83;;
12271;SDS011;6198;51.446;6.698;2023-05-07T04:55:46;24.60;;;22.00;;
12271;SDS011;6198;51.446;6.698;2023-05-07T04:58:12;26.00;;;23.27;;
12271;SDS011;6198;51.446;6.698;2023-05-07T05:00:38;26.60;;;23.93;;
12271;SDS011;6198;51.446;6.698;2023-05-07T05:03:06;29.87;;;23.63;;
12271;SDS011;6198;51.446;6.698;2023-05-07T05:05:32;26.47;;;23.13;;
12271;SDS011;6198;51.446;6.698;2023-05-07T05:07:58;25.07;;;22.53;;
12271;SDS011;6198;51.446;6.698;2023-05-07T05:10:24;27.47;;;24.47;;
12271;SDS011;6198;51.446;6.698;2023-05-07T05:12:50;29.83;;;23.60;;
12271;SDS011;6198;51.446;6.698;2023-05-07T05:15:16;27.33;;;24.53;;
12271;SDS011;6198;51.446;6.698;2023-05-07T05:17:42;28.67;;;25.77;;
12271;SDS011;6198;51.446;6.698;2023-05-07T05:20:08;27.47;;;24.57;;
12271;SDS011;6198;51.446;6.698;2023-05-07T05:22:35;27.93;;;25.13;;
12271;SDS011;6198;51.446;6.698;2023-05-07T05:25:01;26.67;;;24.07;;
12271;SDS011;6198;51.446;6.698;2023-05-07T05:27:28;26.57;;;23.80;;
12271;SDS011;6198;51.446;6.698;2023-05-07T05:29:54;27.43;;;23.20;;
12271;SDS011;6198;51.446;6.698;2023-05-07T05:32:20;24.97;;;22.47;;
12271;SDS011;6198;51.446;6.698;2023-05-07T05:34:49;26.60;;;23.63;;
12271;SDS011;6198;51.446;6.698;2023-05-07T05:37:15;27.87;;;22.83;;
12271;SDS011;6198;51.446;6.698;2023-05-07T05:39:41;24.83;;;22.17;;
12271;SDS011;6198;51.446;6.698;2023-05-07T05:42:07;24.37;;;21.87;;
12271;SDS011;6198;51.446;6.698;2023-05-07T05:44:36;24.17;;;21.67;;
12271;SDS011;6198;51.446;6.698;2023-05-07T05:47:02;23.97;;;21.57;;
12271;SDS011;6198;51.446;6.698;2023-05-07T05:49:28;23.37;;;20.97;;
12271;SDS011;6198;51.446;6.698;2023-05-07T05:51:54;22.80;;;20.47;;
12271;SDS011;6198;51.446;6.698;2023-05-07T05:54:21;21.13;;;18.87;;
12271;SDS011;6198;51.446;6.698;2023-05-07T05:56:47;20.60;;;18.40;;
12271;SDS011;6198;51.446;6.698;2023-05-07T05:59:13;20.90;;;18.80;;
12271;SDS011;6198;51.446;6.698;2023-05-07T06:01:39;20.93;;;18.77;;
12271;SDS011;6198;51.446;6.698;2023-05-07T06:04:05;19.00;;;17.00;;
12271;SDS011;6198;51.446;6.698;2023-05-07T06:06:31;19.17;;;17.37;;
12271;SDS011;6198;51.446;6.698;2023-05-07T06:08:57;18.67;;;15.27;;
12271;SDS011;6198;51.446;6.698;2023-05-07T06:11:23;19.03;;;17.13;;
12271;SDS011;6198;51.446;6.698;2023-05-07T06:13:49;19.30;;;17.30;;
12271;SDS011;6198;51.446;6.698;2023-05-07T06:16:15;16.73;;;15.23;;
12271;SDS011;6198;51.446;6.698;2023-05-07T06:18:41;18.03;;;16.17;;
12271;SDS011;6198;51.446;6.698;2023-05-07T06:21:07;17.40;;;15.80;;
12271;SDS011;6198;51.446;6.698;2023-05-07T06:23:33;17.70;;;15.50;;
12271;SDS011;6198;51.446;6.698;2023-05-07T06:26:03;17.30;;;15.50;;
12271;SDS011;6198;51.446;6.698;2023-05-07T06:28:29;16.30;;;14.60;;
12271;SDS011;6198;51.446;6.698;2023-05-07T06:33:38;14.33;;;13.03;;
12271;SDS011;6198;51.446;6.698;2023-05-07T06:36:05;14.77;;;13.37;;
12271;SDS011;6198;51.446;6.698;2023-05-07T06:38:31;14.50;;;12.97;;
12271;SDS011;6198;51.446;6.698;2023-05-07T06:40:57;14.00;;;12.60;;
12271;SDS011;6198;51.446;6.698;2023-05-07T06:43:23;14.00;;;12.60;;
12271;SDS011;6198;51.446;6.698;2023-05-07T06:45:48;13.00;;;11.70;;
12271;SDS011;6198;51.446;6.698;2023-05-07T06:48:14;13.57;;;12.10;;
12271;SDS011;6198;51.446;6.698;2023-05-07T06:50:41;13.43;;;11.40;;
12271;SDS011;6198;51.446;6.698;2023-05-07T06:53:07;11.70;;;10.60;;
12271;SDS011;6198;51.446;6.698;2023-05-07T06:55:33;12.67;;;11.10;;
12271;SDS011;6198;51.446;6.698;2023-05-07T06:57:59;11.23;;;10.03;;
12271;SDS011;6198;51.446;6.698;2023-05-07T07:00:25;10.83;;;9.67;;
12271;SDS011;6198;51.446;6.698;2023-05-07T07:02:51;12.70;;;10.47;;
12271;SDS011;6198;51.446;6.698;2023-05-07T07:05:17;10.97;;;9.93;;
12271;SDS011;6198;51.446;6.698;2023-05-07T07:07:43;10.83;;;9.50;;
12271;SDS011;6198;51.446;6.698;2023-05-07T07:10:09;12.23;;;9.47;;
12271;SDS011;6198;51.446;6.698;2023-05-07T07:12:35;10.73;;;8.57;;
12271;SDS011;6198;51.446;6.698;2023-05-07T07:15:01;9.60;;;8.20;;
12271;SDS011;6198;51.446;6.698;2023-05-07T07:17:27;9.97;;;8.97;;
12271;SDS011;6198;51.446;6.698;2023-05-07T07:19:53;8.43;;;7.40;;
12271;SDS011;6198;51.446;6.698;2023-05-07T07:22:19;10.03;;;7.67;;
12271;SDS011;6198;51.446;6.698;2023-05-07T07:24:45;8.50;;;7.57;;
12271;SDS011;6198;51.446;6.698;2023-05-07T07:27:16;8.30;;;7.00;;
12271;SDS011;6198;51.446;6.698;2023-05-07T07:29:42;8.23;;;7.43;;
12271;SDS011;6198;51.446;6.698;2023-05-07T07:32:08;7.90;;;7.10;;
12271;SDS011;6198;51.446;6.698;2023-05-07T07:34:33;8.07;;;7.23;;
12271;SDS011;6198;51.446;6.698;2023-05-07T07:36:59;11.20;;;7.07;;
12271;SDS011;6198;51.446;6.698;2023-05-07T07:39:30;7.97;;;7.03;;
12271;SDS011;6198;51.446;6.698;2023-05-07T07:41:57;7.50;;;6.30;;
12271;SDS011;6198;51.446;6.698;2023-05-07T07:44:23;7.50;;;5.73;;
12271;SDS011;6198;51.446;6.698;2023-05-07T07:46:49;10.43;;;5.43;;
12271;SDS011;6198;51.446;6.698;2023-05-07T07:49:15;5.57;;;5.07;;
12271;SDS011;6198;51.446;6.698;2023-05-07T07:51:42;6.03;;;5.37;;
12271;SDS011;6198;51.446;6.698;2023-05-07T07:54:08;6.13;;;4.40;;
12271;SDS011;6198;51.446;6.698;2023-05-07T07:56:34;6.30;;;4.57;;
12271;SDS011;6198;51.446;6.698;2023-05-07T07:59:00;6.33;;;5.30;;
12271;SDS011;6198;51.446;6.698;2023-05-07T08:01:26;5.37;;;4.87;;
12271;SDS011;6198;51.446;6.698;2023-05-07T08:03:52;6.00;;;5.07;;
12271;SDS011;6198;51.446;6.698;2023-05-07T08:06:19;7.30;;;5.20;;
12271;SDS011;6198;51.446;6.698;2023-05-07T08:08:44;5.23;;;4.67;;
12271;SDS011;6198;51.446;6.698;2023-05-07T08:11:10;7.67;;;4.80;;
12271;SDS011;6198;51.446;6.698;2023-05-07T08:13:36;5.77;;;4.80;;
12271;SDS011;6198;51.446;6.698;2023-05-07T08:16:04;7.07;;;4.37;;
12271;SDS011;6198;51.446;6.698;2023-05-07T08:18:30;5.77;;;5.10;;
12271;SDS011;6198;51.446;6.698;2023-05-07T08:20:56;9.60;;;4.73;;
12271;SDS011;6198;51.446;6.698;2023-05-07T08:23:22;6.23;;;4.50;;
12271;SDS011;6198;51.446;6.698;2023-05-07T08:25:49;5.40;;;4.60;;
12271;SDS011;6198;51.446;6.698;2023-05-07T08:28:16;5.90;;;5.33;;
12271;SDS011;6198;51.446;6.698;2023-05-07T08:30:42;5.60;;;4.80;;
12271;SDS011;6198;51.446;6.698;2023-05-07T08:33:08;5.00;;;4.60;;
12271;SDS011;6198;51.446;6.698;2023-05-07T08:35:34;6.67;;;4.63;;
12271;SDS011;6198;51.446;6.698;2023-05-07T08:38:00;4.50;;;4.00;;
12271;SDS011;6198;51.446;6.698;2023-05-07T08:40:26;5.33;;;4.73;;
12271;SDS011;6198;51.446;6.698;2023-05-07T08:42:53;4.80;;;4.20;;
12271;SDS011;6198;51.446;6.698;2023-05-07T08:45:19;5.03;;;4.37;;
12271;SDS011;6198;51.446;6.698;2023-05-07T08:47:54;5.00;;;4.50;;
12271;SDS011;6198;51.446;6.698;2023-05-07T08:50:21;4.70;;;4.30;;
12271;SDS011;6198;51.446;6.698;2023-05-07T08:52:47;5.23;;;4.43;;
12271;SDS011;6198;51.446;6.698;2023-05-07T08:55:13;6.50;;;4.53;;
12271;SDS011;6198;51.446;6.698;2023-05-07T08:57:40;4.90;;;4.37;;
12271;SDS011;6198;51.446;6.698;2023-05-07T09:00:06;5.23;;;4.60;;
12271;SDS011;6198;51.446;6.698;2023-05-07T09:02:33;4.00;;;3.60;;
12271;SDS011;6198;51.446;6.698;2023-05-07T09:05:00;4.17;;;3.73;;
12271;SDS011;6198;51.446;6.698;2023-05-07T09:07:26;5.23;;;3.53;;
12271;SDS011;6198;51.446;6.698;2023-05-07T09:09:52;5.60;;;3.70;;
12271;SDS011;6198;51.446;6.698;2023-05-07T09:12:20;5.23;;;3.50;;
12271;SDS011;6198;51.446;6.698;2023-05-07T09:14:46;3.73;;;3.30;;
12271;SDS011;6198;51.446;6.698;2023-05-07T09:17:13;5.10;;;3.50;;
12271;SDS011;6198;51.446;6.698;2023-05-07T09:19:39;3.83;;;3.47;;
12271;SDS011;6198;51.446;6.698;2023-05-07T09:22:05;6.57;;;3.60;;
12271;SDS011;6198;51.446;6.698;2023-05-07T09:24:34;3.53;;;3.20;;
12271;SDS011;6198;51.446;6.698;2023-05-07T09:27:02;5.10;;;3.37;;
12271;SDS011;6198;51.446;6.698;2023-05-07T09:29:28;4.43;;;3.10;;
12271;SDS011;6198;51.446;6.698;2023-05-07T09:31:55;4.57;;;2.50;;
12271;SDS011;6198;51.446;6.698;2023-05-07T09:34:21;3.80;;;3.00;;
12271;SDS011;6198;51.446;6.698;2023-05-07T09:36:47;3.27;;;2.70;;
12271;SDS011;6198;51.446;6.698;2023-05-07T09:39:13;2.83;;;2.53;;
12271;SDS011;6198;51.446;6.698;2023-05-07T09:41:45;3.73;;;3.00;;
12271;SDS011;6198;51.446;6.698;2023-05-07T09:44:12;3.40;;;2.50;;
12271;SDS011;6198;51.446;6.698;2023-05-07T09:46:40;2.40;;;2.20;;
12271;SDS011;6198;51.446;6.698;2023-05-07T09:49:07;2.80;;;2.60;;
12271;SDS011;6198;51.446;6.698;2023-05-07T09:51:43;3.80;;;2.97;;
12271;SDS011;6198;51.446;6.698;2023-05-07T09:54:11;3.67;;;2.50;;
12271;SDS011;6198;51.446;6.698;2023-05-07T09:56:37;4.07;;;2.60;;
12271;SDS011;6198;51.446;6.698;2023-05-07T09:59:03;3.73;;;2.17;;
12271;SDS011;6198;51.446;6.698;2023-05-07T10:01:31;2.47;;;2.27;;
12271;SDS011;6198;51.446;6.698;2023-05-07T10:03:57;4.20;;;2.70;;
12271;SDS011;6198;51.446;6.698;2023-05-07T10:06:24;4.50;;;2.47;;
12271;SDS011;6198;51.446;6.698;2023-05-07T10:08:53;4.57;;;2.17;;
12271;SDS011;6198;51.446;6.698;2023-05-07T10:11:20;3.83;;;2.07;;
12271;SDS011;6198;51.446;6.698;2023-05-07T10:13:47;6.67;;;2.63;;
12271;SDS011;6198;51.446;6.698;2023-05-07T10:16:13;2.60;;;2.40;;
12271;SDS011;6198;51.446;6.698;2023-05-07T10:18:40;5.27;;;2.50;;
12271;SDS011;6198;51.446;6.698;2023-05-07T10:21:40;5.43;;;2.90;;
12271;SDS011;6198;51.446;6.698;2023-05-07T10:24:20;4.53;;;2.70;;
12271;SDS011;6198;51.446;6.698;2023-05-07T10:26:45;3.30;;;2.53;;
12271;SDS011;6198;51.446;6.698;2023-05-07T10:29:36;2.70;;;2.43;;
12271;SDS011;6198;51.446;6.698;2023-05-07T10:34:49;2.97;;;2.60;;
12271;SDS011;6198;51.446;6.698;2023-05-07T10:37:16;3.33;;;2.43;;
12271;SDS011;6198;51.446;6.698;2023-05-07T10:39:42;4.83;;;2.53;;
12271;SDS011;6198;51.446;6.698;2023-05-07T10:42:11;4.47;;;2.67;;
12271;SDS011;6198;51.446;6.698;2023-05-07T10:44:38;2.90;;;2.30;;
12271;SDS011;6198;51.446;6.698;2023-05-07T10:47:07;3.70;;;2.30;;
12271;SDS011;6198;51.446;6.698;2023-05-07T10:49:35;3.03;;;2.40;;
12271;SDS011;6198;51.446;6.698;2023-05-07T10:57:43;3.80;;;2.60;;
12271;SDS011;6198;51.446;6.698;2023-05-07T11:05:23;3.27;;;2.80;;
12271;SDS011;6198;51.446;6.698;2023-05-07T11:07:59;4.67;;;2.77;;
12271;SDS011;6198;51.446;6.698;2023-05-07T11:13:10;6.10;;;3.20;;
12271;SDS011;6198;51.446;6.698;2023-05-07T11:15:37;4.63;;;2.73;;
12271;SDS011;6198;51.446;6.698;2023-05-07T11:18:03;3.00;;;2.63;;
12271;SDS011;6198;51.446;6.698;2023-05-07T11:20:49;3.50;;;2.60;;
12271;SDS011;6198;51.446;6.698;2023-05-07T11:26:00;5.32;;;3.00;;
12271;SDS011;6198;51.446;6.698;2023-05-07T11:28:28;3.65;;;2.50;;
12271;SDS011;6198;51.446;6.698;2023-05-07T11:30:55;4.27;;;2.50;;
12271;SDS011;6198;51.446;6.698;2023-05-07T11:33:22;4.30;;;2.37;;
12271;SDS011;6198;51.446;6.698;2023-05-07T11:35:50;3.60;;;2.30;;
12271;SDS011;6198;51.446;6.698;2023-05-07T11:38:16;3.30;;;2.30;;
12271;SDS011;6198;51.446;6.698;2023-05-07T11:43:11;3.30;;;2.53;;
12271;SDS011;6198;51.446;6.698;2023-05-07T11:45:37;2.72;;;2.50;;
12271;SDS011;6198;51.446;6.698;2023-05-07T11:48:03;2.87;;;2.57;;
12271;SDS011;6198;51.446;6.698;2023-05-07T11:50:30;3.20;;;2.90;;
12271;SDS011;6198;51.446;6.698;2023-05-07T11:52:56;3.97;;;2.80;;
12271;SDS011;6198;51.446;6.698;2023-05-07T11:55:23;4.40;;;3.07;;
12271;SDS011;6198;51.446;6.698;2023-05-07T11:57:50;5.50;;;2.80;;
12271;SDS011;6198;51.446;6.698;2023-05-07T12:00:16;3.43;;;2.60;;
12271;SDS011;6198;51.446;6.698;2023-05-07T12:02:44;9.03;;;3.03;;
12271;SDS011;6198;51.446;6.698;2023-05-07T12:05:10;3.73;;;2.73;;
12271;SDS011;6198;51.446;6.698;2023-05-07T12:07:37;3.37;;;2.93;;
12271;SDS011;6198;51.446;6.698;2023-05-07T12:10:06;3.17;;;2.70;;
12271;SDS011;6198;51.446;6.698;2023-05-07T12:12:37;6.40;;;3.30;;
12271;SDS011;6198;51.446;6.698;2023-05-07T12:15:04;3.40;;;3.07;;
12271;SDS011;6198;51.446;6.698;2023-05-07T12:17:30;6.40;;;3.00;;
12271;SDS011;6198;51.446;6.698;2023-05-07T12:19:56;3.17;;;2.87;;
12271;SDS011;6198;51.446;6.698;2023-05-07T12:22:22;6.23;;;3.30;;
12271;SDS011;6198;51.446;6.698;2023-05-07T12:24:50;4.13;;;3.20;;
12271;SDS011;6198;51.446;6.698;2023-05-07T12:27:21;4.23;;;3.00;;
12271;SDS011;6198;51.446;6.698;2023-05-07T12:29:48;5.17;;;2.73;;
12271;SDS011;6198;51.446;6.698;2023-05-07T12:32:15;4.13;;;3.10;;
12271;SDS011;6198;51.446;6.698;2023-05-07T12:34:41;3.23;;;2.87;;
12271;SDS011;6198;51.446;6.698;2023-05-07T12:37:07;4.73;;;3.10;;
12271;SDS011;6198;51.446;6.698;2023-05-07T12:39:33;4.33;;;2.90;;
12271;SDS011;6198;51.446;6.698;2023-05-07T12:41:59;3.30;;;2.90;;
12271;SDS011;6198;51.446;6.698;2023-05-07T12:44:29;3.20;;;2.90;;
12271;SDS011;6198;51.446;6.698;2023-05-07T12:46:55;2.80;;;2.60;;
12271;SDS011;6198;51.446;6.698;2023-05-07T12:49:21;3.93;;;2.97;;
12271;SDS011;6198;51.446;6.698;2023-05-07T12:51:48;3.63;;;3.13;;
12271;SDS011;6198;51.446;6.698;2023-05-07T12:54:30;5.23;;;2.63;;
12271;SDS011;6198;51.446;6.698;2023-05-07T12:57:00;5.33;;;2.97;;
12271;SDS011;6198;51.446;6.698;2023-05-07T12:59:41;3.33;;;3.03;;
12271;SDS011;6198;51.446;6.698;2023-05-07T13:02:08;3.97;;;3.00;;
12271;SDS011;6198;51.446;6.698;2023-05-07T13:04:34;4.83;;;3.40;;
12271;SDS011;6198;51.446;6.698;2023-05-07T13:07:01;4.43;;;3.10;;
12271;SDS011;6198;51.446;6.698;2023-05-07T13:09:27;3.57;;;2.90;;
12271;SDS011;6198;51.446;6.698;2023-05-07T13:11:56;4.50;;;2.53;;
12271;SDS011;6198;51.446;6.698;2023-05-07T13:14:24;3.77;;;2.63;;
12271;SDS011;6198;51.446;6.698;2023-05-07T13:16:50;5.40;;;3.00;;
12271;SDS011;6198;51.446;6.698;2023-05-07T13:19:16;3.47;;;2.83;;
12271;SDS011;6198;51.446;6.698;2023-05-07T13:21:42;9.27;;;4.13;;
12271;SDS011;6198;51.446;6.698;2023-05-07T13:24:08;6.83;;;5.20;;
12271;SDS011;6198;51.446;6.698;2023-05-07T13:26:34;10.87;;;4.80;;
12271;SDS011;6198;51.446;6.698;2023-05-07T13:29:00;10.17;;;4.63;;
12271;SDS011;6198;51.446;6.698;2023-05-07T13:31:26;7.33;;;4.17;;
12271;SDS011;6198;51.446;6.698;2023-05-07T13:33:52;9.97;;;4.50;;
12271;SDS011;6198;51.446;6.698;2023-05-07T13:36:18;9.77;;;4.07;;
12271;SDS011;6198;51.446;6.698;2023-05-07T13:38:44;5.63;;;3.53;;
12271;SDS011;6198;51.446;6.698;2023-05-07T13:41:11;6.47;;;3.00;;
12271;SDS011;6198;51.446;6.698;2023-05-07T13:43:38;5.27;;;3.40;;
12271;SDS011;6198;51.446;6.698;2023-05-07T13:46:04;5.17;;;3.50;;
12271;SDS011;6198;51.446;6.698;2023-05-07T13:48:29;4.00;;;3.23;;
12271;SDS011;6198;51.446;6.698;2023-05-07T13:50:55;3.97;;;3.57;;
12271;SDS011;6198;51.446;6.698;2023-05-07T13:53:31;7.03;;;4.03;;
12271;SDS011;6198;51.446;6.698;2023-05-07T13:55:57;4.43;;;4.03;;
12271;SDS011;6198;51.446;6.698;2023-05-07T13:58:23;4.77;;;4.30;;
12271;SDS011;6198;51.446;6.698;2023-05-07T14:00:49;6.70;;;4.37;;
12271;SDS011;6198;51.446;6.698;2023-05-07T14:03:15;4.60;;;3.93;;
12271;SDS011;6198;51.446;6.698;2023-05-07T14:05:42;6.03;;;4.50;;
12271;SDS011;6198;51.446;6.698;2023-05-07T14:08:08;5.80;;;4.00;;
12271;SDS011;6198;51.446;6.698;2023-05-07T14:10:35;6.93;;;4.40;;
12271;SDS011;6198;51.446;6.698;2023-05-07T14:13:01;5.23;;;4.50;;
12271;SDS011;6198;51.446;6.698;2023-05-07T14:15:27;5.10;;;4.23;;
12271;SDS011;6198;51.446;6.698;2023-05-07T14:17:53;5.23;;;4.73;;
12271;SDS011;6198;51.446;6.698;2023-05-07T14:20:20;5.67;;;4.70;;
12271;SDS011;6198;51.446;6.698;2023-05-07T14:22:46;5.63;;;5.03;;
12271;SDS011;6198;51.446;6.698;2023-05-07T14:25:12;6.63;;;4.83;;
12271;SDS011;6198;51.446;6.698;2023-05-07T14:27:38;8.53;;;4.60;;
12271;SDS011;6198;51.446;6.698;2023-05-07T14:30:04;6.27;;;4.40;;
12271;SDS011;6198;51.446;6.698;2023-05-07T14:32:31;4.93;;;4.47;;
12271;SDS011;6198;51.446;6.698;2023-05-07T14:34:57;6.50;;;5.13;;
12271;SDS011;6198;51.446;6.698;2023-05-07T14:37:23;5.90;;;5.20;;
12271;SDS011;6198;51.446;6.698;2023-05-07T14:39:49;9.13;;;6.47;;
12271;SDS011;6198;51.446;6.698;2023-05-07T14:42:15;19.67;;;8.43;;
12271;SDS011;6198;51.446;6.698;2023-05-07T14:44:41;19.70;;;9.53;;
12271;SDS011;6198;51.446;6.698;2023-05-07T14:47:09;21.03;;;9.57;;
12271;SDS011;6198;51.446;6.698;2023-05-07T14:49:35;17.67;;;8.90;;
12271;SDS011;6198;51.446;6.698;2023-05-07T14:52:01;15.67;;;8.67;;
12271;SDS011;6198;51.446;6.698;2023-05-07T14:54:27;14.60;;;9.77;;
12271;SDS011;6198;51.446;6.698;2023-05-07T14:56:53;13.37;;;9.07;;
12271;SDS011;6198;51.446;6.698;2023-05-07T14:59:19;12.73;;;8.53;;
12271;SDS011;6198;51.446;6.698;2023-05-07T15:01:46;12.13;;;8.53;;
12271;SDS011;6198;51.446;6.698;2023-05-07T15:04:12;14.53;;;9.43;;
12271;SDS011;6198;51.446;6.698;2023-05-07T15:06:38;10.33;;;7.77;;
12271;SDS011;6198;51.446;6.698;2023-05-07T15:09:04;11.07;;;7.83;;